Time;durP1;ratioP1;P1;durP2;ratioP2;P2;SDS_P1;SDS_P2;PMS_P1;PMS_P2;Temp;Humidity;BMP_temperature;BMP_pressure;BME280_temperature;BME280_humidity;BME280_pressure;Samples;Min_cycle;Max_cycle;Signal;HPM_P1;HPM_P2
2020/12/20 00:01:14;;;;;;;45.67;20.42;;;6.10;79.40;;;;;;5054557;28;20024;-64
2020/12/20 00:03:40;;;;;;;41.60;18.70;;;6.10;79.40;;;;;;5053478;28;20029;-64
2020/12/20 00:06:06;;;;;;;43.13;19.52;;;6.10;79.10;;;;;;5054081;28;20083;-64
2020/12/20 00:08:31;;;;;;;42.60;18.13;;;6.10;79.40;;;;;;5054097;28;20465;-64
2020/12/20 00:10:57;;;;;;;40.38;18.20;;;6.10;79.90;;;;;;5054332;28;20029;-64
2020/12/20 00:13:23;;;;;;;41.22;19.05;;;6.10;79.50;;;;;;5053430;28;20025;-64
2020/12/20 00:15:48;;;;;;;44.15;18.70;;;6.10;79.50;;;;;;5054369;28;20028;-64
2020/12/20 00:18:14;;;;;;;41.13;18.63;;;6.10;79.80;;;;;;5053933;28;20477;-64
2020/12/20 00:20:40;;;;;;;39.33;18.20;;;6.10;79.80;;;;;;5054385;28;20025;-64
2020/12/20 00:23:06;;;;;;;42.40;18.95;;;6.10;79.50;;;;;;5036215;28;20397;-64
2020/12/20 00:25:32;;;;;;;45.35;18.27;;;6.10;79.60;;;;;;5035761;28;20025;-64
2020/12/20 00:27:58;;;;;;;43.97;19.05;;;6.10;79.60;;;;;;5056527;28;20052;-64
2020/12/20 00:30:23;;;;;;;44.05;17.05;;;6.10;79.70;;;;;;5060246;28;20072;-61
2020/12/20 00:32:51;;;;;;;40.90;17.92;;;6.10;79.70;;;;;;5043272;28;20496;-64
2020/12/20 00:35:17;;;;;;;43.33;18.75;;;6.10;79.80;;;;;;5037754;28;20033;-64
2020/12/20 00:37:43;;;;;;;38.22;18.80;;;6.10;79.90;;;;;;5034121;28;20096;-64
2020/12/20 00:40:09;;;;;;;41.45;19.10;;;6.10;79.80;;;;;;5042689;28;20099;-64
2020/12/20 00:42:35;;;;;;;33.03;15.80;;;6.10;79.70;;;;;;5057687;28;20028;-64
2020/12/20 00:45:02;;;;;;;36.85;16.13;;;6.10;79.80;;;;;;5053481;28;20032;-64
2020/12/20 00:47:28;;;;;;;34.60;16.58;;;6.10;79.80;;;;;;5062287;28;20561;-64
2020/12/20 00:49:53;;;;;;;37.20;17.50;;;6.10;79.70;;;;;;5061741;28;20104;-64
2020/12/20 00:52:19;;;;;;;37.28;16.73;;;6.10;79.70;;;;;;5069994;28;20083;-64
2020/12/20 00:54:45;;;;;;;34.28;17.50;;;6.10;79.80;;;;;;5065221;28;20021;-64
2020/12/20 00:57:10;;;;;;;35.25;17.52;;;6.10;79.80;;;;;;5059561;28;20033;-64
2020/12/20 00:59:36;;;;;;;37.25;17.95;;;6.10;79.90;;;;;;5046346;28;20422;-64
2020/12/20 01:02:02;;;;;;;33.67;15.85;;;6.10;79.90;;;;;;5052688;28;20020;-64
2020/12/20 01:04:28;;;;;;;31.90;15.82;;;6.10;80.00;;;;;;5053793;28;20064;-64
2020/12/20 01:06:58;;;;;;;38.22;16.58;;;6.10;79.80;;;;;;5067309;28;20095;-64
2020/12/20 01:09:24;;;;;;;36.50;17.35;;;6.10;80.00;;;;;;5053753;28;20029;-64
2020/12/20 01:11:49;;;;;;;33.78;14.85;;;6.10;80.00;;;;;;5050664;28;20485;-64
2020/12/20 01:14:16;;;;;;;39.90;17.63;;;6.10;80.00;;;;;;5051137;28;20033;-64
2020/12/20 01:16:41;;;;;;;42.22;16.00;;;6.10;80.10;;;;;;5052342;28;20500;-64
2020/12/20 01:19:07;;;;;;;36.22;17.70;;;6.10;80.10;;;;;;5053107;28;20096;-64
2020/12/20 01:21:33;;;;;;;39.50;17.83;;;6.10;80.10;;;;;;5040875;28;20018;-64
2020/12/20 01:23:59;;;;;;;38.88;16.58;;;6.10;80.10;;;;;;5064135;28;20025;-64
2020/12/20 01:26:28;;;;;;;38.05;18.05;;;6.00;80.20;;;;;;5052819;28;20358;-64
2020/12/20 01:28:57;;;;;;;39.08;16.63;;;6.00;80.10;;;;;;5051041;28;20041;-64
2020/12/20 01:31:23;;;;;;;39.53;16.95;;;6.10;80.20;;;;;;5033630;28;20041;-64
2020/12/20 01:33:49;;;;;;;37.67;17.27;;;6.00;80.20;;;;;;5060591;28;20033;-64
2020/12/20 01:36:16;;;;;;;38.58;16.65;;;6.10;80.20;;;;;;5044462;28;20408;-64
2020/12/20 01:38:42;;;;;;;34.85;16.60;;;6.00;80.20;;;;;;5048292;28;20028;-63
2020/12/20 01:41:09;;;;;;;37.20;16.98;;;6.00;80.30;;;;;;5042738;28;20025;-64
2020/12/20 01:43:48;;;;;;;40.17;16.90;;;6.00;80.40;;;;;;5049294;28;20096;-64
2020/12/20 01:46:20;;;;;;;38.65;17.75;;;6.10;80.50;;;;;;5062618;28;20028;-64
2020/12/20 01:48:47;;;;;;;34.45;17.15;;;6.00;80.30;;;;;;5052206;28;20560;-64
2020/12/20 01:51:13;;;;;;;38.90;16.95;;;6.10;80.40;;;;;;5037023;28;20061;-64
2020/12/20 01:53:40;;;;;;;36.53;16.90;;;6.00;80.40;;;;;;5046779;28;20452;-64
2020/12/20 01:56:07;;;;;;;36.92;17.08;;;6.00;80.30;;;;;;5053150;28;20024;-64
2020/12/20 01:58:39;;;;;;;35.67;17.42;;;6.10;80.20;;;;;;5065031;28;20048;-64
2020/12/20 02:01:06;;;;;;;44.45;20.08;;;6.00;80.30;;;;;;5039461;28;20017;-64
2020/12/20 02:03:32;;;;;;;36.25;17.27;;;6.00;80.30;;;;;;5038403;28;20025;-64
2020/12/20 02:05:58;;;;;;;37.28;17.42;;;6.00;80.40;;;;;;5052423;28;20029;-64
2020/12/20 02:08:27;;;;;;;33.83;15.95;;;6.00;80.40;;;;;;5055919;28;20096;-64
2020/12/20 02:11:15;;;;;;;36.08;16.05;;;6.00;80.40;;;;;;5061510;28;20132;-64
2020/12/20 02:13:46;;;;;;;35.63;15.57;;;6.00;80.90;;;;;;5051665;28;20424;-64
2020/12/20 02:16:13;;;;;;;39.92;17.10;;;6.00;80.50;;;;;;5052580;28;20017;-64
2020/12/20 02:18:40;;;;;;;31.55;15.52;;;6.00;80.50;;;;;;5050993;28;20118;-63
2020/12/20 02:21:11;;;;;;;58.25;16.35;;;6.00;80.50;;;;;;5052143;28;20037;-63
2020/12/20 02:23:42;;;;;;;34.92;15.70;;;6.00;80.60;;;;;;5037587;28;20025;-63
2020/12/20 02:26:11;;;;;;;34.67;16.00;;;6.00;80.70;;;;;;5051849;28;20037;-63
2020/12/20 02:28:38;;;;;;;34.28;16.58;;;6.00;80.70;;;;;;5054728;28;20128;-63
2020/12/20 02:31:04;;;;;;;34.95;15.20;;;6.00;80.80;;;;;;5045603;28;20064;-63
2020/12/20 02:33:31;;;;;;;35.95;15.80;;;5.90;80.80;;;;;;5052013;28;20437;-63
2020/12/20 02:35:57;;;;;;;37.78;15.60;;;6.00;80.80;;;;;;5056237;28;20412;-63
2020/12/20 02:38:23;;;;;;;35.63;16.23;;;6.00;81.00;;;;;;5055157;28;20104;-63
2020/12/20 02:40:49;;;;;;;32.10;14.30;;;6.00;81.00;;;;;;5048941;28;20064;-63
2020/12/20 02:43:15;;;;;;;28.88;14.65;;;5.90;81.00;;;;;;5049314;28;20021;-63
2020/12/20 02:45:40;;;;;;;37.00;16.58;;;6.00;81.10;;;;;;5055653;28;20021;-63
2020/12/20 02:48:06;;;;;;;37.05;16.20;;;6.00;81.00;;;;;;5055320;28;20036;-63
2020/12/20 02:50:32;;;;;;;33.63;15.85;;;6.00;80.90;;;;;;5069308;28;20534;-63
2020/12/20 02:52:57;;;;;;;38.45;16.05;;;6.00;81.00;;;;;;5065036;28;20035;-63
2020/12/20 02:55:23;;;;;;;37.28;17.30;;;6.00;81.10;;;;;;5047867;28;20018;-63
2020/12/20 02:57:49;;;;;;;31.63;14.80;;;6.00;81.70;;;;;;5065119;28;20024;-63
2020/12/20 03:00:14;;;;;;;33.05;14.60;;;6.00;81.00;;;;;;5055990;28;20016;-63
2020/12/20 03:02:40;;;;;;;34.25;15.70;;;6.00;81.00;;;;;;5055676;28;20032;-63
2020/12/20 03:05:06;;;;;;;34.25;15.02;;;6.00;80.90;;;;;;5046495;28;20061;-63
2020/12/20 03:07:32;;;;;;;39.60;16.90;;;5.90;81.00;;;;;;5055905;28;20071;-63
2020/12/20 03:09:57;;;;;;;32.95;15.52;;;5.90;81.10;;;;;;5041130;28;20381;-63
2020/12/20 03:12:23;;;;;;;37.63;15.38;;;5.90;80.80;;;;;;5046421;28;20029;-63
2020/12/20 03:14:49;;;;;;;35.88;14.80;;;5.90;80.80;;;;;;5050032;28;20021;-63
2020/12/20 03:17:15;;;;;;;34.15;16.15;;;5.90;80.80;;;;;;5062278;28;20086;-63
2020/12/20 03:19:40;;;;;;;33.47;15.82;;;6.00;81.10;;;;;;5074987;28;20028;-63
2020/12/20 03:22:06;;;;;;;37.40;15.43;;;6.00;80.80;;;;;;5051981;28;20020;-63
2020/12/20 03:24:32;;;;;;;30.73;15.93;;;6.00;81.00;;;;;;5054864;28;20028;-63
2020/12/20 03:26:58;;;;;;;35.10;14.48;;;6.00;81.00;;;;;;5054544;28;20024;-63
2020/12/20 03:29:23;;;;;;;39.97;15.82;;;5.90;80.80;;;;;;5054885;28;20052;-63
2020/12/20 03:31:49;;;;;;;42.83;15.75;;;6.00;80.90;;;;;;5055070;28;20021;-63
2020/12/20 03:34:15;;;;;;;29.70;14.30;;;6.00;80.80;;;;;;5055110;28;20109;-63
2020/12/20 03:36:40;;;;;;;39.25;14.93;;;5.90;80.80;;;;;;5040882;28;20026;-62
2020/12/20 03:39:06;;;;;;;32.50;14.85;;;5.90;80.80;;;;;;5054006;28;20488;-63
2020/12/20 03:41:32;;;;;;;31.33;14.52;;;6.00;80.80;;;;;;5041926;28;20025;-63
2020/12/20 03:43:57;;;;;;;33.92;14.18;;;6.00;81.10;;;;;;5053635;28;20415;-63
2020/12/20 03:46:23;;;;;;;46.55;17.55;;;5.90;81.00;;;;;;5054746;28;20107;-63
2020/12/20 03:48:49;;;;;;;36.63;15.80;;;6.00;81.00;;;;;;5054705;28;20021;-63
2020/12/20 03:51:14;;;;;;;36.40;16.05;;;6.00;81.00;;;;;;5054915;28;20029;-63
2020/12/20 03:53:40;;;;;;;38.10;16.35;;;6.00;81.00;;;;;;5051588;28;20064;-63
2020/12/20 03:56:09;;;;;;;31.58;14.25;;;6.00;81.10;;;;;;5042474;28;20080;-63
2020/12/20 03:58:35;;;;;;;30.00;14.15;;;6.00;81.10;;;;;;5067252;28;20074;-63
2020/12/20 04:01:01;;;;;;;33.45;14.35;;;6.00;81.10;;;;;;5054383;28;20025;-63
2020/12/20 04:03:26;;;;;;;40.10;16.50;;;6.00;81.10;;;;;;5053896;28;20025;-63
2020/12/20 04:05:52;;;;;;;36.78;16.05;;;6.00;81.00;;;;;;5054405;28;20025;-63
2020/12/20 04:08:18;;;;;;;34.15;16.40;;;6.00;81.00;;;;;;5051702;28;20025;-63
2020/12/20 04:10:43;;;;;;;30.90;15.45;;;6.00;80.80;;;;;;5054588;28;20040;-63
2020/12/20 04:13:09;;;;;;;29.10;15.55;;;6.00;80.70;;;;;;5053426;28;20090;-63
2020/12/20 04:15:35;;;;;;;39.20;16.70;;;6.00;80.80;;;;;;5054425;28;20017;-63
2020/12/20 04:18:01;;;;;;;40.05;16.02;;;6.00;81.10;;;;;;5054220;28;20104;-63
2020/12/20 04:20:26;;;;;;;35.55;14.95;;;6.10;80.90;;;;;;5048662;28;20024;-63
2020/12/20 04:22:52;;;;;;;36.13;15.98;;;6.10;81.00;;;;;;5045005;28;20501;-63
2020/12/20 04:25:18;;;;;;;33.78;14.73;;;6.00;80.70;;;;;;5050542;28;20385;-63
2020/12/20 04:27:43;;;;;;;35.80;15.32;;;6.00;80.70;;;;;;5045533;28;20125;-63
2020/12/20 04:30:09;;;;;;;35.03;14.98;;;6.00;80.70;;;;;;5028379;28;20022;-63
2020/12/20 04:32:35;;;;;;;30.00;13.93;;;6.00;80.60;;;;;;5044090;28;20366;-63
2020/12/20 04:35:01;;;;;;;42.22;15.80;;;6.00;80.60;;;;;;5053906;28;20075;-63
2020/12/20 04:37:27;;;;;;;39.05;14.45;;;6.00;80.80;;;;;;5054478;28;20021;-63
2020/12/20 04:39:53;;;;;;;33.13;14.82;;;6.00;80.60;;;;;;5053154;28;20043;-63
2020/12/20 04:42:18;;;;;;;24.35;13.63;;;6.00;80.60;;;;;;5053797;28;20025;-63
2020/12/20 04:44:44;;;;;;;33.42;15.48;;;6.00;80.60;;;;;;5054345;28;20036;-63
2020/12/20 04:47:11;;;;;;;28.50;14.73;;;6.00;80.60;;;;;;5040299;28;20500;-63
2020/12/20 04:49:39;;;;;;;29.92;13.10;;;6.00;80.50;;;;;;5054430;28;20033;-63
2020/12/20 04:52:07;;;;;;;30.80;15.25;;;6.00;80.60;;;;;;5052607;28;20055;-63
2020/12/20 04:54:32;;;;;;;34.28;14.90;;;6.00;80.50;;;;;;5054132;28;20025;-63
2020/12/20 04:56:58;;;;;;;34.30;15.35;;;6.00;80.60;;;;;;5056074;28;20025;-63
2020/12/20 04:59:25;;;;;;;38.50;13.98;;;6.00;80.70;;;;;;5059850;28;20501;-63
2020/12/20 05:01:51;;;;;;;31.33;15.18;;;6.10;80.90;;;;;;5040216;28;20021;-63
2020/12/20 05:04:17;;;;;;;32.15;15.07;;;6.00;81.00;;;;;;5066147;28;20364;-64
2020/12/20 05:06:43;;;;;;;31.52;15.20;;;6.10;80.90;;;;;;5054720;28;20036;-63
2020/12/20 05:09:09;;;;;;;44.08;16.48;;;6.10;80.90;;;;;;5052676;28;20025;-63
2020/12/20 05:11:41;;;;;;;36.53;14.30;;;6.10;81.00;;;;;;5052838;28;20029;-63
2020/12/20 05:14:07;;;;;;;30.80;15.07;;;6.10;80.90;;;;;;5053076;28;20086;-63
2020/12/20 05:16:36;;;;;;;32.17;15.48;;;6.10;80.90;;;;;;5052872;28;20028;-63
2020/12/20 05:19:04;;;;;;;29.75;14.90;;;6.10;80.90;;;;;;5052900;28;20033;-63
2020/12/20 05:21:30;;;;;;;32.38;15.63;;;6.10;80.90;;;;;;5052345;28;20381;-63
2020/12/20 05:23:57;;;;;;;38.25;14.23;;;6.10;80.90;;;;;;5052989;28;20032;-63
2020/12/20 05:26:28;;;;;;;38.13;14.70;;;6.10;80.90;;;;;;5053234;28;20060;-63
2020/12/20 05:29:06;;;;;;;30.90;14.43;;;6.10;80.80;;;;;;5046924;28;20050;-63
2020/12/20 05:31:32;;;;;;;34.50;14.05;;;6.10;80.70;;;;;;5031575;28;20068;-63
2020/12/20 05:33:58;;;;;;;29.23;13.85;;;6.10;80.60;;;;;;5025788;28;20034;-63
2020/12/20 05:36:26;;;;;;;35.40;15.18;;;6.10;80.70;;;;;;5026084;28;20029;-63
2020/12/20 05:38:52;;;;;;;34.85;15.75;;;6.00;80.70;;;;;;5013074;28;20029;-63
2020/12/20 05:41:29;;;;;;;42.63;14.52;;;6.10;80.70;;;;;;5013191;28;20029;-63
2020/12/20 05:44:21;;;;;;;33.90;14.15;;;6.10;80.80;;;;;;5035965;28;20492;-63
2020/12/20 05:46:47;;;;;;;32.22;14.30;;;6.10;80.80;;;;;;5047125;28;20035;-63
2020/12/20 05:49:23;;;;;;;33.50;13.35;;;6.10;80.90;;;;;;5032649;28;20537;-63
2020/12/20 05:52:02;;;;;;;29.67;14.50;;;6.10;80.80;;;;;;5018758;28;20026;-63
2020/12/20 05:54:36;;;;;;;32.72;14.20;;;6.00;80.70;;;;;;5012638;28;20026;-63
2020/12/20 05:57:12;;;;;;;44.15;15.10;;;6.00;80.60;;;;;;5027482;28;20528;-63
2020/12/20 05:59:39;;;;;;;31.30;13.48;;;6.00;80.50;;;;;;5032086;28;20041;-63
2020/12/20 06:02:06;;;;;;;28.63;13.40;;;6.00;80.70;;;;;;5031974;28;20537;-63
2020/12/20 06:04:33;;;;;;;30.50;13.55;;;6.00;80.60;;;;;;5018293;28;20030;-63
2020/12/20 06:06:59;;;;;;;27.85;14.75;;;6.00;80.70;;;;;;5052470;28;20116;-63
2020/12/20 06:09:26;;;;;;;27.20;13.43;;;6.00;80.80;;;;;;5037992;28;20041;-63
2020/12/20 06:11:59;;;;;;;32.22;14.35;;;6.10;80.90;;;;;;5027081;28;20035;-63
2020/12/20 06:14:29;;;;;;;33.58;13.90;;;6.10;80.80;;;;;;5023853;28;20362;-63
2020/12/20 06:17:19;;;;;;;32.28;14.02;;;6.10;80.80;;;;;;5017452;28;20461;-63
2020/12/20 06:19:48;;;;;;;28.23;13.88;;;6.10;80.60;;;;;;5023295;28;20116;-63
2020/12/20 06:22:24;;;;;;;22.33;12.55;;;6.10;80.60;;;;;;5038109;28;20017;-63
2020/12/20 06:24:52;;;;;;;27.25;13.18;;;6.10;80.80;;;;;;5052067;28;20560;-63
2020/12/20 06:27:19;;;;;;;29.42;14.57;;;6.10;80.90;;;;;;5031462;28;20021;-63
2020/12/20 06:29:56;;;;;;;36.00;14.07;;;6.10;80.80;;;;;;5048926;28;20073;-63
2020/12/20 06:32:28;;;;;;;35.85;15.20;;;6.10;80.80;;;;;;5040180;28;20136;-63
2020/12/20 06:34:54;;;;;;;33.03;14.88;;;6.10;80.80;;;;;;5052056;28;20075;-63
2020/12/20 06:37:21;;;;;;;28.02;13.15;;;6.10;80.80;;;;;;5052337;28;20032;-63
2020/12/20 06:39:47;;;;;;;37.58;13.80;;;6.10;80.80;;;;;;5039486;28;20113;-63
2020/12/20 06:42:13;;;;;;;28.85;13.68;;;6.10;80.60;;;;;;5050007;28;20113;-63
2020/12/20 06:44:39;;;;;;;36.45;15.45;;;6.10;80.70;;;;;;5051363;28;20392;-63
2020/12/20 06:47:05;;;;;;;27.35;12.90;;;6.10;80.70;;;;;;5045960;28;20404;-63
2020/12/20 06:49:31;;;;;;;35.35;14.77;;;6.10;80.80;;;;;;5052081;28;20021;-64
2020/12/20 06:52:28;;;;;;;32.00;13.13;;;6.10;80.80;;;;;;5037593;28;20099;-63
2020/12/20 06:55:00;;;;;;;31.83;14.77;;;6.10;80.60;;;;;;5051689;28;20029;-63
2020/12/20 06:57:26;;;;;;;26.92;13.07;;;6.10;80.80;;;;;;5057748;28;20547;-63
2020/12/20 06:59:51;;;;;;;32.65;13.90;;;6.10;80.80;;;;;;5052881;28;20029;-63
2020/12/20 07:02:44;;;;;;;27.58;13.55;;;6.10;80.80;;;;;;5051844;28;20499;-63
2020/12/20 07:05:44;;;;;;;33.42;14.68;;;6.10;80.70;;;;;;5051434;28;20472;-63
2020/12/20 07:08:20;;;;;;;33.22;14.05;;;6.10;80.70;;;;;;5051232;28;20017;-63
2020/12/20 07:10:50;;;;;;;27.75;14.23;;;6.10;80.80;;;;;;5051648;28;20033;-63
2020/12/20 07:13:30;;;;;;;28.05;12.55;;;6.10;80.80;;;;;;5037030;28;20033;-63
2020/12/20 07:16:06;;;;;;;32.67;13.82;;;6.10;80.70;;;;;;5054406;28;20029;-63
2020/12/20 07:18:47;;;;;;;28.95;12.43;;;6.10;80.60;;;;;;5054471;28;20075;-63
2020/12/20 07:21:19;;;;;;;32.85;12.68;;;6.10;80.70;;;;;;5055482;28;20029;-63
2020/12/20 07:23:52;;;;;;;27.35;13.23;;;6.10;80.70;;;;;;5055272;28;20503;-63
2020/12/20 07:26:18;;;;;;;31.30;13.73;;;6.10;80.80;;;;;;5044144;28;20071;-63
2020/12/20 07:28:44;;;;;;;33.22;13.63;;;6.10;80.90;;;;;;5045277;28;20081;-63
2020/12/20 07:31:15;;;;;;;29.83;13.07;;;6.10;80.90;;;;;;5020955;28;20038;-63
2020/12/20 07:33:41;;;;;;;28.43;13.43;;;6.10;80.90;;;;;;5014993;28;20489;-63
2020/12/20 07:36:07;;;;;;;33.55;15.25;;;6.20;80.90;;;;;;5025754;28;20026;-63
2020/12/20 07:38:33;;;;;;;30.15;14.50;;;6.20;80.90;;;;;;5031706;28;20100;-63
2020/12/20 07:40:58;;;;;;;29.83;15.18;;;6.10;80.90;;;;;;5023700;28;20105;-64
2020/12/20 07:43:24;;;;;;;27.65;14.13;;;6.20;81.00;;;;;;5034090;28;20474;-63
2020/12/20 07:46:04;;;;;;;36.35;17.10;;;6.20;80.90;;;;;;5024313;28;20363;-63
2020/12/20 07:48:30;;;;;;;28.38;14.77;;;6.20;80.90;;;;;;5019606;28;20030;-63
2020/12/20 07:51:16;;;;;;;33.30;13.48;;;6.20;81.00;;;;;;5034984;28;20086;-63
2020/12/20 07:53:45;;;;;;;24.25;14.07;;;6.30;81.00;;;;;;5018717;28;20030;-63
2020/12/20 07:56:20;;;;;;;25.15;12.85;;;6.30;81.00;;;;;;5022507;28;20072;-63
2020/12/20 07:58:46;;;;;;;25.65;12.85;;;6.30;80.90;;;;;;5034852;28;20025;-63
2020/12/20 08:01:12;;;;;;;29.35;14.52;;;6.30;80.90;;;;;;5033899;28;20088;-63
2020/12/20 08:03:38;;;;;;;31.35;13.15;;;6.30;80.70;;;;;;5033871;28;20025;-63
2020/12/20 08:06:11;;;;;;;22.08;12.15;;;6.30;80.60;;;;;;5032317;28;20411;-63
2020/12/20 08:08:38;;;;;;;25.60;13.50;;;6.30;80.60;;;;;;5045704;28;20068;-63
2020/12/20 08:11:20;;;;;;;33.80;13.13;;;6.30;80.50;;;;;;5046415;28;20041;-63
2020/12/20 08:13:54;;;;;;;27.55;12.52;;;6.30;80.50;;;;;;5027362;28;20362;-63
2020/12/20 08:16:31;;;;;;;26.88;13.55;;;6.30;81.10;;;;;;5041353;28;20052;-63
2020/12/20 08:19:04;;;;;;;26.38;12.50;;;6.30;80.30;;;;;;5027690;28;20030;-63
2020/12/20 08:22:15;;;;;;;32.78;13.73;;;6.30;80.40;;;;;;5030358;28;20109;-63
2020/12/20 08:24:42;;;;;;;22.88;11.07;;;6.20;80.10;;;;;;5026107;28;20022;-63
2020/12/20 08:27:30;;;;;;;24.27;12.38;;;6.20;80.50;;;;;;5029354;28;20014;-63
2020/12/20 08:29:58;;;;;;;24.23;12.15;;;6.20;80.20;;;;;;5044596;28;20527;-63
2020/12/20 08:32:33;;;;;;;19.38;11.73;;;6.20;80.60;;;;;;5042163;28;20075;-63
2020/12/20 08:35:16;;;;;;;22.25;11.98;;;6.20;80.40;;;;;;5052587;28;20116;-63
2020/12/20 08:37:43;;;;;;;24.88;11.98;;;6.20;80.40;;;;;;5054126;28;20393;-63
2020/12/20 08:40:14;;;;;;;22.02;11.88;;;6.20;80.50;;;;;;5051689;28;20118;-63
2020/12/20 08:42:40;;;;;;;20.15;12.18;;;6.20;80.40;;;;;;5033778;28;20024;-63
2020/12/20 08:45:20;;;;;;;21.83;12.07;;;6.20;80.50;;;;;;5033582;28;20372;-63
2020/12/20 08:47:47;;;;;;;24.30;12.85;;;6.20;80.30;;;;;;5042205;28;20029;-63
2020/12/20 08:50:13;;;;;;;33.05;12.52;;;6.20;80.30;;;;;;5052888;28;20021;-63
2020/12/20 08:52:39;;;;;;;30.17;12.55;;;6.20;80.30;;;;;;5046517;28;20032;-63
2020/12/20 08:55:08;;;;;;;21.70;11.75;;;6.20;80.50;;;;;;5046466;28;20053;-63
2020/12/20 08:57:35;;;;;;;20.95;12.05;;;6.20;80.40;;;;;;5066444;28;20029;-63
2020/12/20 09:00:17;;;;;;;22.13;12.38;;;6.20;80.50;;;;;;5053913;28;20096;-63
2020/12/20 09:02:43;;;;;;;21.80;11.57;;;6.30;80.50;;;;;;5053696;28;20033;-63
2020/12/20 09:05:14;;;;;;;22.08;11.38;;;6.30;80.40;;;;;;5068575;28;20039;-63
2020/12/20 09:07:46;;;;;;;23.73;12.70;;;6.30;80.20;;;;;;5052822;28;20417;-63
2020/12/20 09:10:13;;;;;;;22.05;12.65;;;6.30;80.20;;;;;;5051476;28;20063;-64
2020/12/20 09:12:50;;;;;;;27.50;13.25;;;6.30;80.50;;;;;;5053181;28;20025;-63
2020/12/20 09:15:18;;;;;;;33.03;11.57;;;6.30;80.40;;;;;;5040248;28;20032;-62
2020/12/20 09:17:49;;;;;;;24.15;12.85;;;6.40;80.50;;;;;;5043806;28;20018;-63
2020/12/20 09:20:23;;;;;;;20.02;11.98;;;6.40;80.30;;;;;;5050288;28;20013;-63
2020/12/20 09:22:55;;;;;;;23.15;12.13;;;6.30;80.20;;;;;;5052982;28;20072;-63
2020/12/20 09:25:44;;;;;;;27.15;12.35;;;6.40;80.20;;;;;;5051246;28;20539;-63
2020/12/20 09:28:25;;;;;;;23.48;12.40;;;6.40;80.10;;;;;;5052465;28;20049;-63
2020/12/20 09:30:53;;;;;;;21.70;11.13;;;6.30;80.10;;;;;;5046493;28;20041;-63
2020/12/20 09:33:38;;;;;;;23.52;12.60;;;6.30;80.10;;;;;;5044301;28;20032;-63
2020/12/20 09:36:15;;;;;;;23.58;12.65;;;6.30;80.20;;;;;;5040595;28;20025;-63
2020/12/20 09:38:55;;;;;;;26.88;12.70;;;6.40;80.50;;;;;;5042126;28;20100;-63
2020/12/20 09:41:26;;;;;;;30.13;13.20;;;6.40;80.50;;;;;;5043825;28;20021;-63
2020/12/20 09:43:53;;;;;;;28.03;14.73;;;6.40;80.30;;;;;;5045797;28;20105;-63
2020/12/20 09:46:21;;;;;;;24.20;14.07;;;6.40;80.80;;;;;;5033126;28;20028;-63
2020/12/20 09:48:48;;;;;;;26.58;13.63;;;6.40;80.70;;;;;;5038601;28;20087;-63
2020/12/20 09:51:13;;;;;;;27.98;13.50;;;6.50;80.60;;;;;;5044053;28;20057;-63
2020/12/20 09:53:39;;;;;;;25.40;12.88;;;6.40;80.50;;;;;;5033189;28;20060;-63
2020/12/20 09:56:05;;;;;;;27.25;13.43;;;6.40;80.40;;;;;;5044461;28;20022;-63
2020/12/20 09:58:32;;;;;;;30.15;12.95;;;6.40;80.40;;;;;;5047540;28;20515;-63
2020/12/20 10:00:57;;;;;;;25.48;13.40;;;6.40;81.00;;;;;;5047629;28;20036;-63
2020/12/20 10:03:25;;;;;;;25.77;13.48;;;6.40;80.50;;;;;;5045760;28;20024;-63
2020/12/20 10:05:51;;;;;;;26.30;12.48;;;6.40;80.30;;;;;;5049378;28;20538;-63
2020/12/20 10:08:17;;;;;;;24.00;13.02;;;6.40;80.20;;;;;;5047150;28;20112;-63
2020/12/20 10:10:43;;;;;;;23.27;12.77;;;6.40;80.10;;;;;;5040266;28;20025;-63
2020/12/20 10:13:09;;;;;;;24.70;13.25;;;6.40;80.30;;;;;;5047092;28;20025;-63
2020/12/20 10:15:34;;;;;;;23.05;11.93;;;6.40;80.30;;;;;;5048016;28;20039;-63
2020/12/20 10:18:02;;;;;;;26.05;13.45;;;6.40;80.40;;;;;;5045288;28;20021;-63
2020/12/20 10:20:33;;;;;;;22.60;12.25;;;6.40;80.30;;;;;;5050055;28;20048;-63
2020/12/20 10:22:59;;;;;;;23.52;12.07;;;6.40;80.30;;;;;;5052195;28;20033;-63
2020/12/20 10:25:26;;;;;;;19.85;11.30;;;6.50;80.50;;;;;;5049750;28;20044;-63
2020/12/20 10:27:55;;;;;;;18.40;10.43;;;6.50;80.50;;;;;;5048757;28;20427;-63
2020/12/20 10:30:21;;;;;;;21.95;11.00;;;6.50;80.30;;;;;;5046307;28;20030;-63
2020/12/20 10:32:47;;;;;;;18.73;11.00;;;6.50;80.40;;;;;;5051824;28;20060;-63
2020/12/20 10:35:14;;;;;;;17.70;10.45;;;6.50;80.20;;;;;;5037261;28;20105;-63
2020/12/20 10:37:40;;;;;;;21.23;12.02;;;6.50;80.20;;;;;;5044657;28;20017;-63
2020/12/20 10:40:06;;;;;;;22.13;12.77;;;6.50;80.20;;;;;;5037626;28;20543;-63
2020/12/20 10:42:31;;;;;;;20.15;11.20;;;6.50;80.10;;;;;;5045167;28;20017;-63
2020/12/20 10:44:57;;;;;;;22.42;12.35;;;6.50;80.10;;;;;;5047824;28;20473;-63
2020/12/20 10:47:23;;;;;;;20.15;11.82;;;6.50;80.30;;;;;;5050390;28;20048;-63
2020/12/20 10:49:50;;;;;;;18.50;11.18;;;6.50;80.20;;;;;;5055124;28;20025;-63
2020/12/20 10:52:16;;;;;;;21.75;11.70;;;6.50;80.40;;;;;;5051233;28;20021;-63
2020/12/20 10:54:42;;;;;;;18.60;11.32;;;6.60;80.40;;;;;;5046620;28;20048;-63
2020/12/20 10:57:08;;;;;;;16.63;10.13;;;6.60;80.30;;;;;;5064393;28;20108;-64
2020/12/20 10:59:33;;;;;;;17.00;10.20;;;6.60;80.00;;;;;;5052267;28;20104;-63
2020/12/20 11:01:59;;;;;;;16.13;10.95;;;6.60;80.00;;;;;;5047226;28;20037;-64
2020/12/20 11:04:26;;;;;;;16.42;11.02;;;6.60;79.80;;;;;;5047417;28;20028;-63
2020/12/20 11:06:58;;;;;;;16.42;10.40;;;6.70;79.90;;;;;;5046148;28;20029;-63
2020/12/20 11:09:25;;;;;;;15.35;10.18;;;6.70;79.90;;;;;;5039140;28;20026;-63
2020/12/20 11:11:51;;;;;;;14.82;10.23;;;6.70;79.60;;;;;;5049647;28;20037;-63
2020/12/20 11:14:17;;;;;;;15.23;9.77;;;6.70;79.30;;;;;;5043422;28;20040;-63
2020/12/20 11:16:43;;;;;;;13.50;9.05;;;6.60;79.10;;;;;;5043736;28;20405;-63
2020/12/20 11:19:09;;;;;;;15.35;9.50;;;6.60;79.40;;;;;;5044648;28;20025;-63
2020/12/20 11:21:36;;;;;;;15.77;9.52;;;6.60;79.40;;;;;;5046903;28;20025;-63
2020/12/20 11:24:02;;;;;;;13.68;8.75;;;6.60;79.20;;;;;;5038662;28;20048;-63
2020/12/20 11:26:27;;;;;;;14.23;9.50;;;6.60;79.10;;;;;;5041801;28;20029;-63
2020/12/20 11:28:54;;;;;;;14.75;9.68;;;6.50;79.00;;;;;;5048493;28;20785;-64
2020/12/20 11:31:24;;;;;;;12.57;8.88;;;6.50;79.10;;;;;;5038512;28;20032;-64
2020/12/20 11:33:51;;;;;;;14.93;8.82;;;6.50;79.10;;;;;;5044306;28;20033;-64
2020/12/20 11:36:19;;;;;;;13.43;9.18;;;6.50;79.10;;;;;;5047425;28;20048;-64
2020/12/20 11:38:46;;;;;;;14.10;8.55;;;6.50;79.10;;;;;;5046336;28;20083;-63
2020/12/20 11:41:12;;;;;;;11.95;8.57;;;6.40;79.10;;;;;;5044060;28;20021;-63
2020/12/20 11:43:38;;;;;;;13.00;8.90;;;6.40;79.20;;;;;;5047144;28;20029;-63
2020/12/20 11:46:04;;;;;;;11.73;8.40;;;6.40;79.10;;;;;;5047066;28;20480;-64
2020/12/20 11:48:30;;;;;;;11.95;7.93;;;6.40;79.00;;;;;;5045253;28;20016;-63
2020/12/20 11:50:57;;;;;;;12.18;8.82;;;6.40;78.90;;;;;;5049536;28;20026;-63
2020/12/20 11:53:24;;;;;;;10.43;7.45;;;6.40;79.00;;;;;;5049709;28;20020;-63
2020/12/20 11:55:50;;;;;;;12.32;8.07;;;6.40;79.00;;;;;;5048146;28;20365;-63
2020/12/20 11:58:16;;;;;;;11.57;7.70;;;6.30;78.90;;;;;;5047769;28;20108;-63
2020/12/20 12:00:48;;;;;;;10.73;7.53;;;6.40;78.90;;;;;;5044343;28;20033;-63
2020/12/20 12:03:15;;;;;;;12.85;7.47;;;6.30;78.90;;;;;;5043194;28;20022;-63
2020/12/20 12:05:42;;;;;;;10.30;7.18;;;6.30;79.00;;;;;;5035124;28;20030;-63
2020/12/20 12:08:08;;;;;;;11.35;7.53;;;6.30;79.00;;;;;;5045319;28;20039;-63
2020/12/20 12:10:46;;;;;;;13.13;8.20;;;6.40;79.10;;;;;;5045324;28;20029;-63
2020/12/20 12:13:12;;;;;;;11.50;7.80;;;6.40;79.00;;;;;;5046671;28;20028;-63
2020/12/20 12:15:39;;;;;;;13.15;8.27;;;6.40;78.90;;;;;;5043132;28;20054;-63
2020/12/20 12:18:05;;;;;;;12.40;8.35;;;6.40;78.90;;;;;;5046309;28;20017;-63
2020/12/20 12:20:31;;;;;;;11.15;8.18;;;6.40;78.80;;;;;;5045848;28;20360;-63
2020/12/20 12:22:57;;;;;;;12.60;8.48;;;6.40;78.80;;;;;;5044839;28;20025;-63
2020/12/20 12:25:23;;;;;;;12.88;9.02;;;6.40;78.80;;;;;;5043462;28;20384;-63
2020/12/20 12:27:48;;;;;;;11.38;8.15;;;6.40;78.90;;;;;;5046798;28;20021;-62
2020/12/20 12:30:14;;;;;;;12.48;8.60;;;6.40;78.80;;;;;;5044294;28;20059;-63
2020/12/20 12:32:40;;;;;;;14.77;9.45;;;6.40;78.80;;;;;;5044895;28;20026;-63
2020/12/20 12:35:07;;;;;;;13.82;8.40;;;6.40;78.80;;;;;;5040035;28;20040;-63
2020/12/20 12:37:33;;;;;;;13.43;9.40;;;6.40;78.80;;;;;;5036495;28;20044;-63
2020/12/20 12:39:58;;;;;;;12.90;9.18;;;6.30;78.70;;;;;;5033841;28;20022;-63
2020/12/20 12:42:24;;;;;;;15.85;9.05;;;6.30;78.80;;;;;;5041103;28;20130;-63
2020/12/20 12:44:50;;;;;;;13.27;9.90;;;6.30;78.90;;;;;;5041083;28;20371;-63